Aeroporto :
LOGIN :

Iscrizione | Disclaimer

   EN    FR    IT 

 










Sommario :    VFR   VFR Marginale   IFR   IFR Intensivo   IFR Molto Intensivo
Visibilità : 
Base nubi : 
>= 8 km
>= 3000ft
5 / 8 km
1000 / 3000 ft
1500m / 5 km
500 / 1000 ft
800 / 1500m
200 / 500 ft
< 800m
< 200 ft
Simboli :   Temporali  Nebbia  Neve Forte  Precipitazioni Forti  Vento > 20 kt
SIGMETs :   Varie  Temporali  Ghiacco  Turbolenza  Onda orograficha  Ceneri Vulcaniche






- Altitudine del aeroporto : 17 ft
- Codice IATA : GRQ


EHGG - Groningen Eelde

ULTIMO METAR :
  • 151825Z AUTO 22017KT 9999 FEW015CB SCT028 06/04 Q1000 BECMG BKN020

METARs OBSOLETI :
  • 151755Z AUTO 22017KT 200V260 9999 DZ FEW015CB BKN048 07/05 Q1000 TEMPO 7000 -SHRA FEW020CB BECMG NSW
  • 151725Z AUTO 22015KT 190V250 9999 FEW015CB BKN023 OVC031 07/05 Q0999 REDZ TEMPO 7000 -SHRA FEW020CB
  • 151655Z AUTO 22017KT 9999 SHRA FEW017 BKN023 BKN034 07/05 Q0999 REUPRARA TEMPO 7000 -SHRA FEW020CB BECMG NSW
  • 151625Z AUTO 22017KT 9999 FEW024 07/04 Q0998 TEMPO 7000 -SHRA FEW020CB
  • 151555Z AUTO 21014KT 9999 FEW028 07/04 Q0998 NOSIG

TAF TAF EHGG
Valido dal 15 a 18 ore il 17 a 00 ore UTC


151723Z 1518/1624 22015KT 9999 BKN025
PROB30
TEMPO 1518/1520 5000 -SHRA FEW015CB BKN020
BECMG 1603/1606 19011KT
TEMPO 1615/1622 6000 RA
PROB30 1615/1621 4000 DZRA BKN010
BECMG 1618/1621 10005KT
PROB30 1621/1624 2500 BR BKN004



MetMap, La meteo Aeronautica in un colpo d'occhio ! - Copyright ORBIFLY Dicembre 2007 - Disclaimer

ORBIFLY MET'MAP TEAM :

Programmazione e sviluppo : Alexandra Zaïnal
Concezione : Baudouin d'Aumeries
Aiuto per la programmazione : Marc-Olivier Méhu
Supporto tecnico e logistico : Manuel Goepfert
Aiuto per la traduzione : Arnaldo La Scala

Contatto : metmap@orbifly.com




FONTI E CREDITI :

   NOAA